Time;durP1;ratioP1;P1;durP2;ratioP2;P2;SDS_P1;SDS_P2;PMS_P1;PMS_P2;Temp;Humidity;BMP_temperature;BMP_pressure;BME280_temperature;BME280_humidity;BME280_pressure;Samples;Min_cycle;Max_cycle;Signal;HPM_P1;HPM_P2
2023/12/11 00:02:58;;;;;;;0.40;0.40;;;18.70;51.50;;;;;;8361696;28;20033;-50
2023/12/11 00:06:59;;;;;;;0.40;0.40;;;18.70;51.50;;;;;;8361274;28;20086;-50
2023/12/11 00:11:00;;;;;;;0.40;0.40;;;18.70;51.50;;;;;;8360808;28;20037;-52
2023/12/11 00:15:00;;;;;;;0.52;0.45;;;18.70;51.50;;;;;;8360907;28;20025;-52
2023/12/11 00:19:01;;;;;;;0.40;0.40;;;18.60;51.40;;;;;;8360608;28;20029;-49
2023/12/11 00:23:02;;;;;;;0.40;0.40;;;18.70;51.50;;;;;;8360403;28;20098;-50
2023/12/11 00:27:03;;;;;;;0.45;0.45;;;18.60;51.50;;;;;;8360394;28;20036;-49
2023/12/11 00:31:07;;;;;;;0.52;0.40;;;18.70;51.60;;;;;;8360196;28;20111;-51
2023/12/11 00:35:08;;;;;;;0.40;0.40;;;18.60;51.50;;;;;;8360097;28;20048;-50
2023/12/11 00:39:09;;;;;;;0.40;0.40;;;18.60;51.60;;;;;;8359827;28;20120;-51
2023/12/11 00:43:09;;;;;;;0.55;0.55;;;18.60;51.60;;;;;;8359987;28;20040;-52
2023/12/11 00:47:10;;;;;;;0.50;0.50;;;18.60;51.60;;;;;;8359809;28;20040;-49
2023/12/11 00:51:18;;;;;;;0.68;0.50;;;18.60;51.60;;;;;;8359713;28;20033;-52
2023/12/11 00:55:19;;;;;;;0.73;0.63;;;18.70;51.60;;;;;;8359907;28;20060;-51
2023/12/11 00:59:19;;;;;;;0.50;0.40;;;18.60;51.60;;;;;;8359720;28;20338;-50
2023/12/11 01:03:20;;;;;;;0.80;0.55;;;18.60;51.60;;;;;;8365265;28;20037;-53
2023/12/11 01:07:21;;;;;;;0.60;0.50;;;18.60;51.60;;;;;;8366385;28;20041;-52
2023/12/11 01:11:21;;;;;;;0.68;0.30;;;18.60;51.60;;;;;;8366417;28;20166;-53
2023/12/11 01:15:22;;;;;;;0.68;0.40;;;18.70;51.60;;;;;;8366118;28;20033;-53
2023/12/11 01:19:23;;;;;;;0.60;0.43;;;18.60;51.60;;;;;;8366141;28;20033;-54
2023/12/11 01:23:24;;;;;;;0.70;0.60;;;18.60;51.60;;;;;;8365867;28;20041;-53
2023/12/11 01:27:24;;;;;;;0.60;0.50;;;18.60;51.60;;;;;;8365891;28;20497;-52
2023/12/11 01:31:25;;;;;;;0.43;0.40;;;18.60;51.60;;;;;;8365773;28;20033;-52
2023/12/11 01:35:26;;;;;;;0.30;0.30;;;18.60;51.60;;;;;;8365451;28;20056;-51
2023/12/11 01:39:26;;;;;;;0.40;0.40;;;18.60;51.60;;;;;;8365236;28;20029;-50
2023/12/11 01:43:27;;;;;;;0.50;0.50;;;18.60;51.60;;;;;;8365510;28;20037;-53
2023/12/11 01:47:28;;;;;;;0.77;0.60;;;18.60;51.60;;;;;;8364921;28;20164;-51
2023/12/11 01:51:29;;;;;;;0.70;0.60;;;18.60;51.60;;;;;;8363708;28;20036;-53
2023/12/11 01:55:32;;;;;;;0.45;0.45;;;18.60;51.70;;;;;;8365088;28;20055;-52
2023/12/11 01:59:33;;;;;;;0.52;0.50;;;18.60;51.70;;;;;;8365133;28;20090;-53
2023/12/11 02:03:35;;;;;;;0.57;0.55;;;18.60;51.70;;;;;;8365206;28;20498;-53
2023/12/11 02:07:37;;;;;;;0.40;0.40;;;18.60;51.70;;;;;;8364658;28;20036;-52
2023/12/11 02:11:38;;;;;;;0.47;0.47;;;18.60;51.70;;;;;;8363661;28;20057;-51
2023/12/11 02:15:50;;;;;;;0.70;0.47;;;18.60;51.70;;;;;;8364746;28;20040;-52
2023/12/11 02:19:51;;;;;;;0.40;0.40;;;18.60;52.20;;;;;;8364154;28;20033;-51
2023/12/11 02:23:55;;;;;;;1.15;0.50;;;18.60;51.70;;;;;;8363690;28;20035;-51
2023/12/11 02:27:55;;;;;;;0.68;0.43;;;18.60;51.70;;;;;;8363812;28;20106;-52
2023/12/11 02:31:56;;;;;;;0.60;0.45;;;18.60;51.70;;;;;;8363688;28;20033;-53
2023/12/11 02:35:57;;;;;;;0.70;0.68;;;18.60;51.70;;;;;;8363096;28;20406;-52
2023/12/11 02:39:58;;;;;;;;;;;18.60;51.70;;;;;;8363870;28;20367;-51
2023/12/11 02:43:59;;;;;;;0.40;0.40;;;18.60;51.70;;;;;;8363994;28;19904;-52
2023/12/11 02:48:02;;;;;;;0.30;0.30;;;18.60;51.70;;;;;;8363185;28;20430;-52
2023/12/11 02:52:03;;;;;;;0.40;0.40;;;18.60;51.70;;;;;;8362907;28;20039;-53
2023/12/11 02:56:04;;;;;;;0.43;0.43;;;18.60;51.70;;;;;;8363098;28;20033;-52
2023/12/11 03:00:06;;;;;;;0.40;0.40;;;18.60;51.70;;;;;;8363074;28;20167;-53
2023/12/11 03:04:07;;;;;;;0.50;0.40;;;18.60;51.70;;;;;;8362599;28;20064;-53
2023/12/11 03:08:07;;;;;;;0.70;0.70;;;18.60;51.70;;;;;;8362710;28;20036;-53
2023/12/11 03:12:08;;;;;;;0.30;0.30;;;18.60;51.70;;;;;;8362541;28;20032;-51
2023/12/11 03:16:13;;;;;;;0.47;0.47;;;18.60;51.90;;;;;;8362299;28;20043;-53
2023/12/11 03:20:14;;;;;;;0.32;0.30;;;18.60;51.80;;;;;;8362703;28;20032;-52
2023/12/11 03:24:14;;;;;;;;;;;18.60;51.80;;;;;;8361662;28;20025;-54
2023/12/11 03:28:15;;;;;;;0.40;0.40;;;18.60;51.80;;;;;;8362154;28;19916;-53
2023/12/11 03:32:16;;;;;;;0.40;0.30;;;18.60;51.80;;;;;;8361954;28;20033;-54
2023/12/11 03:36:17;;;;;;;1.30;0.50;;;18.60;51.80;;;;;;8361535;28;20045;-54
2023/12/11 03:40:17;;;;;;;0.40;0.40;;;18.60;51.80;;;;;;8361763;28;20026;-53
2023/12/11 03:44:18;;;;;;;0.40;0.40;;;18.60;51.80;;;;;;8361694;28;20036;-54
2023/12/11 03:48:19;;;;;;;0.45;0.45;;;18.60;51.80;;;;;;8361278;28;20138;-54
2023/12/11 03:52:20;;;;;;;0.30;0.30;;;18.60;51.80;;;;;;8361320;28;20029;-53
2023/12/11 03:56:21;;;;;;;0.50;0.50;;;18.60;51.80;;;;;;8361056;28;20036;-54
2023/12/11 04:00:22;;;;;;;0.35;0.35;;;18.60;51.80;;;;;;8361122;28;20036;-53
2023/12/11 04:04:23;;;;;;;0.52;0.40;;;18.60;51.80;;;;;;8361192;28;20025;-54
2023/12/11 04:08:24;;;;;;;0.40;0.40;;;18.60;51.80;;;;;;8360738;28;20498;-54
2023/12/11 04:12:24;;;;;;;0.40;0.40;;;18.60;51.80;;;;;;8360969;28;20419;-55
2023/12/11 04:16:25;;;;;;;0.40;0.40;;;18.60;51.80;;;;;;8360854;28;20029;-54
2023/12/11 04:20:26;;;;;;;0.50;0.50;;;18.60;51.80;;;;;;8360608;28;20029;-53
2023/12/11 04:24:26;;;;;;;0.30;0.30;;;18.60;51.90;;;;;;8360610;28;20033;-54
2023/12/11 04:28:27;;;;;;;0.30;0.30;;;18.60;51.90;;;;;;8360382;28;20503;-53
2023/12/11 04:32:28;;;;;;;0.40;0.40;;;18.60;51.90;;;;;;8360328;28;20096;-52
2023/12/11 04:36:29;;;;;;;0.30;0.30;;;18.50;51.80;;;;;;8360056;28;20048;-52
2023/12/11 04:40:30;;;;;;;0.40;0.40;;;18.50;52.30;;;;;;8360211;28;20040;-53
2023/12/11 04:44:30;;;;;;;0.30;0.30;;;18.60;51.90;;;;;;8360015;28;20048;-51
2023/12/11 04:48:31;;;;;;;0.30;0.30;;;18.50;51.80;;;;;;8360141;28;20048;-52
2023/12/11 04:52:32;;;;;;;0.32;0.30;;;18.60;51.90;;;;;;8359925;28;20498;-52
2023/12/11 04:56:33;;;;;;;0.50;0.50;;;18.50;51.80;;;;;;8359752;28;20029;-52
2023/12/11 05:00:34;;;;;;;0.57;0.43;;;18.50;51.80;;;;;;8358740;28;20033;-50
2023/12/11 05:04:34;;;;;;;0.77;0.30;;;18.60;51.90;;;;;;8359767;28;20037;-53
2023/12/11 05:08:35;;;;;;;0.40;0.40;;;18.60;51.90;;;;;;8359690;28;20091;-53
2023/12/11 05:12:36;;;;;;;0.40;0.40;;;18.60;51.90;;;;;;8359768;28;20028;-52
2023/12/11 05:16:36;;;;;;;0.32;0.32;;;18.60;51.80;;;;;;8359475;28;20029;-52
2023/12/11 05:20:37;;;;;;;0.30;0.30;;;18.60;51.80;;;;;;8359565;28;20072;-53
2023/12/11 05:24:38;;;;;;;0.55;0.40;;;18.60;51.80;;;;;;8359627;28;20041;-53
2023/12/11 05:28:38;;;;;;;0.80;0.40;;;18.70;51.70;;;;;;8359179;28;20029;-50
2023/12/11 05:32:39;;;;;;;0.50;0.40;;;18.70;51.50;;;;;;8359482;28;20029;-53
2023/12/11 05:36:40;;;;;;;0.40;0.40;;;18.80;51.50;;;;;;8359101;28;20734;-53
2023/12/11 05:40:41;;;;;;;0.52;0.45;;;18.80;51.40;;;;;;8359143;28;20736;-52
2023/12/11 05:44:41;;;;;;;0.43;0.43;;;18.80;51.30;;;;;;8359356;28;20033;-50
2023/12/11 05:48:42;;;;;;;0.45;0.45;;;18.80;51.30;;;;;;8363309;28;20451;-51
2023/12/11 05:52:44;;;;;;;0.38;0.38;;;18.80;51.30;;;;;;8365640;28;20037;-52
2023/12/11 05:56:44;;;;;;;0.30;0.30;;;18.80;51.20;;;;;;8365012;28;20041;-53
2023/12/11 06:00:45;;;;;;;0.30;0.30;;;18.80;51.20;;;;;;8364868;28;20060;-53
2023/12/11 06:04:46;;;;;;;1.08;0.50;;;18.80;51.20;;;;;;8364757;28;20033;-52
2023/12/11 06:08:46;;;;;;;0.50;0.40;;;18.80;51.20;;;;;;8364663;28;20033;-52
2023/12/11 06:12:47;;;;;;;0.30;0.30;;;18.80;51.20;;;;;;8364477;28;20057;-52
2023/12/11 06:16:48;;;;;;;0.47;0.40;;;18.90;51.20;;;;;;8364491;28;20048;-52
2023/12/11 06:20:49;;;;;;;0.32;0.32;;;18.90;51.20;;;;;;8364373;28;20083;-52
2023/12/11 06:24:50;;;;;;;0.45;0.45;;;18.90;51.20;;;;;;8364774;28;20183;-51
2023/12/11 06:28:50;;;;;;;0.40;0.40;;;18.90;51.20;;;;;;8363796;28;20056;-53
2023/12/11 06:32:51;;;;;;;0.43;0.43;;;18.90;51.20;;;;;;8363953;28;20359;-53
2023/12/11 06:36:52;;;;;;;0.30;0.30;;;18.90;51.20;;;;;;8363723;28;20414;-52
2023/12/11 06:40:52;;;;;;;0.40;0.40;;;18.90;51.20;;;;;;8363610;28;20535;-52
2023/12/11 06:44:53;;;;;;;0.47;0.47;;;18.90;51.20;;;;;;8363716;28;20035;-53
2023/12/11 06:48:54;;;;;;;0.45;0.45;;;18.90;51.20;;;;;;8363592;28;20077;-53
2023/12/11 06:52:54;;;;;;;0.40;0.40;;;18.90;51.20;;;;;;8363202;28;20029;-53
2023/12/11 06:56:56;;;;;;;0.40;0.40;;;18.90;51.20;;;;;;8363018;28;20179;-53
2023/12/11 07:00:58;;;;;;;;;;;18.90;51.20;;;;;;8362370;28;20120;-52
2023/12/11 07:04:59;;;;;;;0.50;0.30;;;18.90;51.20;;;;;;8362831;28;19909;-52
2023/12/11 07:09:00;;;;;;;0.52;0.50;;;18.90;51.20;;;;;;8344548;28;20072;-52
2023/12/11 07:13:00;;;;;;;0.30;0.30;;;18.90;51.20;;;;;;8362780;28;20047;-53
2023/12/11 07:17:01;;;;;;;0.38;0.38;;;18.90;51.20;;;;;;8362493;28;20037;-52
2023/12/11 07:21:06;;;;;;;0.40;0.40;;;18.90;51.20;;;;;;8362475;28;20040;-52
2023/12/11 07:25:07;;;;;;;0.30;0.30;;;18.90;51.20;;;;;;8362312;28;20624;-52
2023/12/11 07:29:08;;;;;;;0.35;0.35;;;18.90;51.20;;;;;;8361863;28;20041;-52
2023/12/11 07:33:08;;;;;;;0.40;0.40;;;18.90;51.30;;;;;;8362123;28;20115;-51
2023/12/11 07:37:10;;;;;;;0.50;0.30;;;18.90;51.30;;;;;;8360091;28;20105;-52
2023/12/11 07:41:11;;;;;;;;;;;18.80;51.40;;;;;;8360900;28;20029;-52
2023/12/11 07:45:13;;;;;;;0.38;0.38;;;18.80;51.40;;;;;;8361653;28;19915;-52
2023/12/11 07:49:14;;;;;;;0.32;0.32;;;18.80;51.40;;;;;;8361328;28;20033;-51
2023/12/11 07:53:15;;;;;;;0.50;0.50;;;18.80;51.40;;;;;;8361820;28;20119;-52
2023/12/11 07:57:16;;;;;;;0.40;0.40;;;18.80;51.40;;;;;;8361132;28;20045;-52
2023/12/11 08:01:17;;;;;;;0.30;0.30;;;18.80;51.40;;;;;;8361395;28;20039;-51
2023/12/11 08:05:18;;;;;;;0.60;0.50;;;18.90;51.40;;;;;;8361292;28;20163;-50
2023/12/11 08:09:18;;;;;;;0.50;0.45;;;18.90;51.30;;;;;;8360394;28;20091;-52
2023/12/11 08:13:19;;;;;;;0.30;0.30;;;18.90;51.30;;;;;;8360660;28;20486;-49
2023/12/11 08:17:20;;;;;;;0.40;0.40;;;18.90;51.30;;;;;;8361564;28;20064;-51
2023/12/11 08:21:20;;;;;;;0.40;0.40;;;18.90;51.30;;;;;;8360544;28;20029;-50
2023/12/11 08:25:21;;;;;;;0.30;0.30;;;18.90;51.30;;;;;;8360354;28;20064;-52
2023/12/11 08:29:22;;;;;;;0.30;0.30;;;18.90;51.30;;;;;;8360352;28;20033;-49
2023/12/11 08:33:23;;;;;;;0.40;0.38;;;18.90;51.30;;;;;;8360114;28;20025;-51
2023/12/11 08:37:24;;;;;;;0.40;0.40;;;18.90;51.30;;;;;;8359825;28;20053;-51
2023/12/11 08:41:24;;;;;;;0.40;0.40;;;18.80;51.30;;;;;;8358560;28;20186;-51
2023/12/11 08:45:25;;;;;;;0.40;0.40;;;18.90;51.40;;;;;;8360129;28;20749;-49
2023/12/11 08:49:26;;;;;;;0.32;0.32;;;18.80;51.30;;;;;;8358516;28;20037;-50
2023/12/11 08:53:27;;;;;;;0.38;0.38;;;18.90;51.40;;;;;;8359614;28;20027;-50
2023/12/11 08:57:28;;;;;;;0.40;0.40;;;18.80;51.40;;;;;;8359937;28;20045;-51
2023/12/11 09:01:30;;;;;;;0.22;0.22;;;18.80;51.40;;;;;;8359781;28;20041;-51
2023/12/11 09:05:32;;;;;;;0.30;0.30;;;18.80;51.40;;;;;;8360030;28;20061;-52
2023/12/11 09:09:33;;;;;;;0.30;0.30;;;18.80;51.40;;;;;;8359625;28;20034;-52
2023/12/11 09:13:34;;;;;;;0.55;0.30;;;18.90;51.40;;;;;;8359541;28;20033;-52
2023/12/11 09:17:35;;;;;;;0.30;0.30;;;18.90;51.30;;;;;;8359312;28;20696;-50
2023/12/11 09:21:36;;;;;;;0.38;0.38;;;18.90;51.30;;;;;;8360334;28;20418;-52
2023/12/11 09:25:37;;;;;;;0.60;0.47;;;18.90;51.40;;;;;;8366006;28;20037;-50
2023/12/11 09:29:38;;;;;;;0.40;0.40;;;18.90;51.30;;;;;;8365271;28;20570;-52
2023/12/11 09:33:40;;;;;;;0.35;0.35;;;18.90;51.30;;;;;;8365862;28;20396;-51
2023/12/11 09:37:41;;;;;;;0.35;0.35;;;18.90;51.30;;;;;;8365444;28;20406;-51
2023/12/11 09:41:44;;;;;;;0.40;0.40;;;18.90;51.30;;;;;;8365251;28;20036;-52
2023/12/11 09:45:47;;;;;;;0.40;0.40;;;18.90;51.30;;;;;;8365558;28;20555;-49
2023/12/11 09:49:48;;;;;;;0.20;0.20;;;18.90;51.40;;;;;;8365220;28;20033;-51
2023/12/11 09:53:51;;;;;;;0.40;0.40;;;18.80;51.40;;;;;;8365072;28;20025;-50
2023/12/11 09:57:52;;;;;;;0.30;0.30;;;18.90;51.50;;;;;;8364781;28;20510;-49
2023/12/11 10:01:54;;;;;;;0.40;0.40;;;18.80;51.40;;;;;;8365037;28;20402;-52
2023/12/11 10:05:59;;;;;;;0.30;0.30;;;18.90;51.50;;;;;;8364746;28;20390;-52
2023/12/11 10:10:15;;;;;;;0.30;0.30;;;18.80;51.40;;;;;;8364567;28;20470;-50
2023/12/11 10:14:16;;;;;;;0.30;0.30;;;18.90;51.40;;;;;;8364537;28;20067;-51
2023/12/11 10:18:17;;;;;;;0.30;0.30;;;18.90;51.40;;;;;;8364718;28;20036;-50
2023/12/11 10:22:31;;;;;;;0.30;0.30;;;18.90;51.40;;;;;;8346244;28;20039;-51
2023/12/11 10:26:35;;;;;;;0.43;0.38;;;18.90;51.40;;;;;;8364256;28;20033;-52
2023/12/11 10:30:54;;;;;;;0.50;0.40;;;18.90;51.30;;;;;;8364192;28;20044;-53
2023/12/11 10:34:55;;;;;;;0.30;0.30;;;18.90;51.30;;;;;;8363656;28;20094;-52
2023/12/11 10:39:10;;;;;;;0.63;0.63;;;18.90;51.30;;;;;;8363577;28;20053;-53
2023/12/11 10:43:11;;;;;;;0.40;0.32;;;18.90;51.30;;;;;;8363615;28;20138;-52
2023/12/11 10:47:12;;;;;;;0.20;0.20;;;18.90;51.40;;;;;;8363632;28;20044;-51
2023/12/11 10:51:13;;;;;;;0.30;0.30;;;18.90;51.40;;;;;;8363337;28;20036;-52
2023/12/11 10:55:14;;;;;;;0.30;0.30;;;18.90;51.40;;;;;;8363283;28;20437;-53
2023/12/11 10:59:16;;;;;;;0.35;0.35;;;18.90;51.40;;;;;;8363233;28;20064;-53
2023/12/11 11:03:19;;;;;;;0.30;0.30;;;18.90;51.40;;;;;;8363003;28;20041;-51
2023/12/11 11:07:34;;;;;;;0.20;0.20;;;18.90;51.50;;;;;;8362693;28;20037;-54
2023/12/11 11:11:41;;;;;;;0.28;0.28;;;18.90;51.40;;;;;;8362775;28;20666;-53
2023/12/11 11:15:42;;;;;;;0.20;0.20;;;18.90;51.40;;;;;;8362637;28;20021;-52
2023/12/11 11:20:10;;;;;;;0.40;0.40;;;18.90;51.40;;;;;;8362577;28;20029;-52
2023/12/11 11:24:27;;;;;;;0.28;0.28;;;18.90;51.40;;;;;;8362443;28;20204;-52
2023/12/11 11:28:50;;;;;;;0.40;0.40;;;18.90;51.40;;;;;;8362091;28;20029;-51
2023/12/11 11:32:53;;;;;;;0.20;0.20;;;18.90;51.40;;;;;;8362068;28;20490;-53
2023/12/11 11:36:54;;;;;;;0.40;0.40;;;18.90;51.40;;;;;;8361789;28;20047;-51
2023/12/11 11:40:55;;;;;;;0.32;0.32;;;18.90;51.40;;;;;;8362005;28;20044;-51
2023/12/11 11:44:57;;;;;;;0.70;0.47;;;18.90;51.40;;;;;;8361108;28;20064;-50
2023/12/11 11:48:58;;;;;;;0.52;0.20;;;18.90;51.30;;;;;;8361409;28;20394;-50
2023/12/11 11:53:06;;;;;;;0.28;0.28;;;18.90;51.30;;;;;;8361379;28;20104;-49
2023/12/11 11:57:07;;;;;;;0.25;0.22;;;18.90;51.30;;;;;;8361238;28;20029;-52
2023/12/11 12:01:08;;;;;;;0.28;0.28;;;18.90;51.40;;;;;;8361159;28;20039;-50
2023/12/11 12:05:09;;;;;;;0.30;0.30;;;18.90;51.40;;;;;;8361271;28;20418;-49
2023/12/11 12:09:16;;;;;;;;;;;18.90;51.40;;;;;;8361374;28;20029;-50
2023/12/11 12:13:17;;;;;;;0.30;0.30;;;18.90;51.40;;;;;;8360786;28;19908;-50
2023/12/11 12:17:18;;;;;;;0.30;0.30;;;18.90;51.50;;;;;;8360917;28;20390;-51
2023/12/11 12:21:18;;;;;;;0.60;0.40;;;18.90;51.50;;;;;;8360605;28;20033;-51
2023/12/11 12:25:19;;;;;;;0.30;0.30;;;18.90;51.50;;;;;;8360541;28;20041;-50
2023/12/11 12:29:20;;;;;;;0.40;0.40;;;18.90;51.40;;;;;;8360439;28;20037;-50
2023/12/11 12:33:21;;;;;;;0.30;0.30;;;18.90;51.40;;;;;;8360714;28;20029;-48
2023/12/11 12:37:22;;;;;;;0.32;0.32;;;18.90;51.50;;;;;;8359981;28;20053;-49
2023/12/11 12:41:23;;;;;;;0.50;0.50;;;18.80;51.40;;;;;;8359917;28;20037;-51
2023/12/11 12:45:25;;;;;;;0.50;0.32;;;18.90;51.40;;;;;;8360101;28;20041;-51
2023/12/11 12:49:26;;;;;;;0.30;0.30;;;18.90;51.40;;;;;;8359836;28;20071;-49
2023/12/11 12:53:26;;;;;;;0.30;0.30;;;18.90;51.30;;;;;;8359910;28;20063;-52
2023/12/11 12:57:35;;;;;;;0.30;0.30;;;18.90;51.30;;;;;;8359577;28;20131;-52
2023/12/11 13:01:37;;;;;;;0.20;0.20;;;18.90;51.40;;;;;;8359411;28;20032;-52
2023/12/11 13:05:44;;;;;;;0.20;0.20;;;18.90;51.40;;;;;;8359593;28;20037;-52
2023/12/11 13:09:45;;;;;;;0.30;0.30;;;18.90;51.40;;;;;;8359303;28;20025;-51
2023/12/11 13:13:56;;;;;;;0.40;0.40;;;18.90;51.40;;;;;;8359160;28;20040;-50
2023/12/11 13:17:56;;;;;;;0.30;0.30;;;18.90;51.40;;;;;;8359360;28;20120;-53
2023/12/11 13:21:57;;;;;;;0.30;0.30;;;18.90;51.40;;;;;;8359102;28;20292;-52
2023/12/11 13:25:58;;;;;;;0.40;0.40;;;18.90;51.40;;;;;;8359073;28;20429;-52
2023/12/11 13:30:00;;;;;;;0.20;0.20;;;18.90;51.50;;;;;;8358982;28;20033;-51
2023/12/11 13:34:00;;;;;;;0.35;0.35;;;18.90;51.40;;;;;;8359125;28;20025;-52
2023/12/11 13:38:01;;;;;;;0.43;0.30;;;18.90;51.40;;;;;;8358676;28;20056;-52
2023/12/11 13:42:02;;;;;;;0.40;0.40;;;18.90;51.40;;;;;;8359320;28;20025;-50
2023/12/11 13:46:03;;;;;;;0.22;0.22;;;18.90;51.40;;;;;;8358948;28;20445;-49
2023/12/11 13:50:04;;;;;;;;;;;18.90;51.40;;;;;;8357983;28;20045;-52
2023/12/11 13:54:05;;;;;;;0.52;0.40;;;18.90;51.40;;;;;;8359035;28;19911;-52
2023/12/11 13:58:06;;;;;;;0.40;0.40;;;18.90;51.40;;;;;;8358852;28;20461;-51
2023/12/11 14:02:07;;;;;;;0.25;0.25;;;18.90;51.40;;;;;;8358811;28;20037;-51
2023/12/11 14:06:07;;;;;;;;;;;18.90;51.40;;;;;;8358927;28;20037;-50
2023/12/11 14:10:08;;;;;;;0.30;0.30;;;18.90;51.40;;;;;;8363553;28;20007;-52
2023/12/11 14:14:09;;;;;;;0.20;0.20;;;18.90;51.40;;;;;;8364309;28;20032;-52
2023/12/11 14:18:10;;;;;;;0.30;0.30;;;18.90;51.40;;;;;;8364785;28;20040;-50
2023/12/11 14:22:10;;;;;;;0.30;0.30;;;18.90;51.40;;;;;;8364182;28;20434;-52
2023/12/11 14:26:11;;;;;;;0.32;0.32;;;18.90;51.40;;;;;;8363754;28;20028;-52
2023/12/11 14:30:12;;;;;;;0.30;0.30;;;18.90;51.90;;;;;;8363860;28;20072;-52
2023/12/11 14:34:13;;;;;;;0.40;0.40;;;18.90;51.40;;;;;;8363882;28;20032;-52
2023/12/11 14:38:14;;;;;;;0.30;0.30;;;18.90;51.40;;;;;;8363391;28;20049;-52
2023/12/11 14:42:14;;;;;;;0.28;0.28;;;18.90;51.40;;;;;;8363408;28;20033;-50
2023/12/11 14:46:15;;;;;;;0.35;0.30;;;18.90;51.40;;;;;;8363726;28;20486;-50
2023/12/11 14:50:17;;;;;;;0.65;0.30;;;18.90;51.40;;;;;;8363493;28;20080;-52
2023/12/11 14:54:17;;;;;;;0.20;0.20;;;18.90;51.40;;;;;;8363022;28;20514;-52
2023/12/11 14:58:18;;;;;;;0.28;0.28;;;18.90;51.40;;;;;;8361786;28;20639;-51
2023/12/11 15:02:19;;;;;;;0.30;0.30;;;18.90;51.40;;;;;;8362973;28;20111;-52
2023/12/11 15:06:19;;;;;;;0.30;0.30;;;18.90;51.40;;;;;;8362810;28;20043;-50
2023/12/11 15:10:23;;;;;;;0.20;0.20;;;18.90;51.40;;;;;;8362496;28;20037;-52
2023/12/11 15:14:26;;;;;;;0.40;0.40;;;18.90;51.40;;;;;;8362774;28;20079;-51
2023/12/11 15:18:28;;;;;;;0.30;0.30;;;18.90;51.40;;;;;;8361970;28;20041;-52
2023/12/11 15:22:29;;;;;;;0.40;0.40;;;18.90;51.40;;;;;;8361844;28;20483;-51
2023/12/11 15:26:30;;;;;;;0.30;0.30;;;18.90;51.40;;;;;;8362214;28;20037;-51
2023/12/11 15:30:30;;;;;;;0.25;0.25;;;18.90;51.40;;;;;;8361961;28;20036;-50
2023/12/11 15:34:31;;;;;;;0.20;0.20;;;18.90;51.40;;;;;;8362295;28;20041;-49
2023/12/11 15:38:34;;;;;;;0.20;0.20;;;18.90;51.40;;;;;;8361861;28;20049;-52
2023/12/11 15:42:38;;;;;;;0.20;0.20;;;18.90;51.40;;;;;;8361642;28;20037;-53
2023/12/11 15:46:40;;;;;;;0.30;0.30;;;18.90;51.40;;;;;;8361473;28;20040;-51
2023/12/11 15:50:41;;;;;;;0.30;0.30;;;18.90;51.40;;;;;;8361532;28;20436;-53
2023/12/11 15:54:45;;;;;;;0.43;0.30;;;18.90;51.50;;;;;;8361557;28;20080;-52
2023/12/11 15:58:46;;;;;;;0.30;0.30;;;18.90;51.40;;;;;;8361432;28;20028;-52
2023/12/11 16:02:47;;;;;;;0.40;0.40;;;18.90;51.50;;;;;;8361071;28;20186;-52
2023/12/11 16:06:47;;;;;;;0.30;0.30;;;18.90;51.40;;;;;;8359596;28;20076;-52
2023/12/11 16:10:48;;;;;;;0.30;0.30;;;18.90;51.40;;;;;;8360927;28;20037;-51
2023/12/11 16:14:49;;;;;;;0.25;0.25;;;18.90;51.40;;;;;;8361377;28;20025;-52
2023/12/11 16:18:49;;;;;;;0.40;0.40;;;18.90;51.40;;;;;;8360619;28;20041;-51
2023/12/11 16:22:50;;;;;;;0.47;0.30;;;18.90;52.00;;;;;;8360572;28;20457;-52
2023/12/11 16:26:52;;;;;;;0.25;0.25;;;18.90;51.50;;;;;;8360505;28;20094;-51
2023/12/11 16:30:53;;;;;;;0.30;0.22;;;18.90;51.40;;;;;;8360284;28;20082;-51
2023/12/11 16:34:57;;;;;;;0.40;0.40;;;18.90;51.40;;;;;;8360344;28;20025;-50
2023/12/11 16:38:58;;;;;;;0.40;0.40;;;18.90;51.40;;;;;;8360041;28;20383;-51
2023/12/11 16:42:59;;;;;;;0.30;0.30;;;18.90;51.40;;;;;;8360070;28;20037;-52
2023/12/11 16:46:59;;;;;;;0.20;0.20;;;18.90;51.40;;;;;;8360059;28;20091;-51
2023/12/11 16:51:00;;;;;;;0.40;0.40;;;18.90;51.40;;;;;;8360021;28;20033;-51
2023/12/11 16:55:01;;;;;;;0.30;0.30;;;18.90;51.40;;;;;;8359842;28;20033;-52
2023/12/11 16:59:01;;;;;;;0.38;0.38;;;18.90;51.40;;;;;;8358592;28;20065;-51
2023/12/11 17:03:03;;;;;;;0.30;0.30;;;18.90;51.40;;;;;;8359617;28;20048;-51
2023/12/11 17:07:03;;;;;;;0.30;0.30;;;18.90;51.40;;;;;;8359512;28;20120;-51
2023/12/11 17:11:04;;;;;;;0.30;0.30;;;18.90;51.40;;;;;;8359820;28;20037;-50
2023/12/11 17:15:06;;;;;;;0.30;0.30;;;18.90;51.40;;;;;;8359659;28;20033;-50
2023/12/11 17:19:07;;;;;;;0.30;0.30;;;18.90;51.50;;;;;;8359604;28;20448;-52
2023/12/11 17:23:08;;;;;;;0.30;0.30;;;18.90;51.50;;;;;;8359801;28;20032;-52
2023/12/11 17:27:08;;;;;;;0.22;0.22;;;18.90;51.50;;;;;;8359765;28;20041;-51
2023/12/11 17:31:09;;;;;;;0.38;0.38;;;18.90;51.50;;;;;;8359358;28;20025;-50
2023/12/11 17:35:10;;;;;;;0.30;0.30;;;18.90;51.50;;;;;;8359637;28;20033;-52
2023/12/11 17:39:11;;;;;;;0.30;0.30;;;18.90;52.10;;;;;;8357781;28;20142;-52
2023/12/11 17:43:11;;;;;;;0.40;0.40;;;18.90;51.60;;;;;;8360863;28;20125;-51
2023/12/11 17:47:12;;;;;;;0.30;0.30;;;18.90;51.60;;;;;;8365556;28;20033;-52
2023/12/11 17:51:13;;;;;;;0.30;0.30;;;18.90;51.60;;;;;;8365252;28;20107;-52
2023/12/11 17:55:14;;;;;;;0.28;0.28;;;18.90;51.50;;;;;;8365144;28;20033;-50
2023/12/11 17:59:14;;;;;;;0.30;0.30;;;18.90;51.50;;;;;;8365124;28;20457;-53
2023/12/11 18:03:15;;;;;;;0.28;0.28;;;18.90;51.50;;;;;;8364999;28;20483;-52
2023/12/11 18:07:19;;;;;;;0.30;0.30;;;18.90;51.40;;;;;;8363785;28;20368;-52
2023/12/11 18:11:20;;;;;;;0.30;0.30;;;18.90;51.40;;;;;;8364938;28;20052;-52
2023/12/11 18:15:21;;;;;;;0.47;0.30;;;18.90;51.40;;;;;;8364526;28;20036;-53
2023/12/11 18:19:21;;;;;;;0.30;0.30;;;18.90;51.40;;;;;;8364409;28;20047;-51
2023/12/11 18:23:24;;;;;;;0.28;0.28;;;18.90;51.40;;;;;;8364854;28;20055;-50
2023/12/11 18:27:24;;;;;;;0.28;0.28;;;18.90;51.40;;;;;;8364012;28;20029;-52
2023/12/11 18:31:25;;;;;;;0.30;0.30;;;18.90;51.40;;;;;;8364107;28;20083;-50
2023/12/11 18:35:26;;;;;;;0.30;0.30;;;18.90;51.40;;;;;;8364096;28;20118;-54
2023/12/11 18:39:26;;;;;;;0.30;0.30;;;18.90;51.40;;;;;;8363479;28;20053;-54
2023/12/11 18:43:27;;;;;;;0.35;0.35;;;18.90;51.50;;;;;;8363889;28;20597;-54
2023/12/11 18:47:28;;;;;;;0.35;0.35;;;18.90;51.50;;;;;;8363249;28;20029;-54
2023/12/11 18:51:31;;;;;;;0.30;0.30;;;18.90;51.40;;;;;;8363390;28;20025;-53
2023/12/11 18:55:31;;;;;;;0.20;0.20;;;18.90;51.50;;;;;;8361591;28;20025;-54
2023/12/11 18:59:32;;;;;;;0.25;0.25;;;18.90;51.50;;;;;;8362934;28;20041;-54
2023/12/11 19:03:33;;;;;;;0.20;0.20;;;18.90;51.50;;;;;;8363209;28;20439;-54
2023/12/11 19:07:33;;;;;;;0.30;0.30;;;18.90;51.50;;;;;;8362869;28;20032;-54
2023/12/11 19:11:34;;;;;;;0.25;0.25;;;18.90;51.50;;;;;;8362749;28;20119;-54
2023/12/11 19:15:35;;;;;;;0.35;0.35;;;18.90;51.40;;;;;;8362719;28;20114;-52
2023/12/11 19:19:36;;;;;;;0.30;0.30;;;18.90;51.40;;;;;;8362478;28;20029;-55
2023/12/11 19:23:36;;;;;;;0.32;0.32;;;18.90;51.40;;;;;;8362390;28;20478;-54
2023/12/11 19:27:41;;;;;;;0.30;0.30;;;18.90;51.50;;;;;;8362105;28;20044;-54
2023/12/11 19:31:42;;;;;;;0.20;0.20;;;18.90;51.50;;;;;;8362644;28;20041;-53
2023/12/11 19:35:43;;;;;;;0.30;0.30;;;18.90;51.50;;;;;;8362109;28;20114;-54
2023/12/11 19:39:43;;;;;;;0.20;0.20;;;18.90;51.60;;;;;;8360518;28;20037;-54
2023/12/11 19:43:44;;;;;;;0.30;0.30;;;18.80;51.60;;;;;;8361585;28;20470;-54
2023/12/11 19:47:45;;;;;;;0.20;0.20;;;18.80;51.60;;;;;;8361509;28;20043;-54
2023/12/11 19:51:45;;;;;;;0.30;0.30;;;18.80;51.60;;;;;;8361442;28;20043;-53
2023/12/11 19:55:46;;;;;;;0.30;0.30;;;18.80;51.60;;;;;;8361363;28;20083;-55
2023/12/11 19:59:47;;;;;;;0.30;0.30;;;18.80;51.60;;;;;;8361321;28;20096;-55
2023/12/11 20:03:47;;;;;;;0.30;0.30;;;18.90;51.60;;;;;;8360278;28;20114;-54
2023/12/11 20:07:48;;;;;;;0.25;0.25;;;18.80;51.60;;;;;;8360389;28;20036;-53
2023/12/11 20:11:49;;;;;;;0.38;0.30;;;18.80;51.60;;;;;;8360885;28;20036;-54
2023/12/11 20:15:49;;;;;;;0.45;0.40;;;18.80;51.60;;;;;;8360516;28;20072;-53
2023/12/11 20:19:50;;;;;;;0.20;0.20;;;18.80;51.70;;;;;;8359049;28;20033;-53
2023/12/11 20:23:51;;;;;;;0.80;0.30;;;18.80;52.40;;;;;;8360556;28;20494;-55
2023/12/11 20:27:51;;;;;;;0.30;0.30;;;18.90;52.30;;;;;;8359035;28;20036;-53
2023/12/11 20:31:53;;;;;;;0.30;0.30;;;18.90;52.30;;;;;;8360268;28;20074;-53
2023/12/11 20:35:54;;;;;;;0.40;0.40;;;19.00;52.20;;;;;;8359978;28;20102;-53
2023/12/11 20:39:54;;;;;;;0.22;0.22;;;19.00;51.80;;;;;;8360143;28;20124;-55
2023/12/11 20:43:55;;;;;;;0.45;0.45;;;19.00;51.80;;;;;;8360048;28;20502;-57
2023/12/11 20:47:56;;;;;;;0.30;0.30;;;19.00;51.80;;;;;;8358508;28;20479;-54
2023/12/11 20:51:56;;;;;;;0.40;0.40;;;19.00;52.30;;;;;;8359842;28;20037;-55
2023/12/11 20:55:57;;;;;;;0.75;0.38;;;19.00;52.00;;;;;;8359864;28;20033;-51
2023/12/11 20:59:59;;;;;;;0.40;0.40;;;19.00;52.00;;;;;;8360103;28;20037;-52